sensor_id;sensor_type;location;lat;lon;timestamp;P1;durP1;ratioP1;P2;durP2;ratioP2
57752;SDS011;43583;53.132;6.574;2023-05-13T00:03:37;5.07;;;3.03;;
57752;SDS011;43583;53.132;6.574;2023-05-13T00:06:07;5.40;;;3.22;;
57752;SDS011;43583;53.132;6.574;2023-05-13T00:08:33;6.82;;;3.13;;
57752;SDS011;43583;53.132;6.574;2023-05-13T00:10:59;4.05;;;3.67;;
57752;SDS011;43583;53.132;6.574;2023-05-13T00:13:25;5.28;;;2.83;;
57752;SDS011;43583;53.132;6.574;2023-05-13T00:15:51;5.07;;;3.25;;
57752;SDS011;43583;53.132;6.574;2023-05-13T00:18:17;4.60;;;2.80;;
57752;SDS011;43583;53.132;6.574;2023-05-13T00:20:43;7.57;;;3.40;;
57752;SDS011;43583;53.132;6.574;2023-05-13T00:23:08;5.55;;;3.25;;
57752;SDS011;43583;53.132;6.574;2023-05-13T00:25:35;4.00;;;2.85;;
57752;SDS011;43583;53.132;6.574;2023-05-13T00:28:01;4.78;;;2.97;;
57752;SDS011;43583;53.132;6.574;2023-05-13T00:30:30;5.68;;;3.53;;
57752;SDS011;43583;53.132;6.574;2023-05-13T00:32:55;6.57;;;3.40;;
57752;SDS011;43583;53.132;6.574;2023-05-13T00:35:21;5.07;;;3.05;;
57752;SDS011;43583;53.132;6.574;2023-05-13T00:37:47;4.57;;;3.35;;
57752;SDS011;43583;53.132;6.574;2023-05-13T00:40:15;4.28;;;3.17;;
57752;SDS011;43583;53.132;6.574;2023-05-13T00:45:18;5.82;;;3.50;;
57752;SDS011;43583;53.132;6.574;2023-05-13T00:47:44;6.75;;;3.72;;
57752;SDS011;43583;53.132;6.574;2023-05-13T00:50:13;4.65;;;3.45;;
57752;SDS011;43583;53.132;6.574;2023-05-13T00:52:40;6.40;;;3.38;;
57752;SDS011;43583;53.132;6.574;2023-05-13T00:55:09;4.55;;;3.13;;
57752;SDS011;43583;53.132;6.574;2023-05-13T00:57:46;5.50;;;3.88;;
57752;SDS011;43583;53.132;6.574;2023-05-13T01:00:17;9.00;;;4.78;;
57752;SDS011;43583;53.132;6.574;2023-05-13T01:10:56;6.82;;;4.53;;
57752;SDS011;43583;53.132;6.574;2023-05-13T01:13:31;9.33;;;4.70;;
57752;SDS011;43583;53.132;6.574;2023-05-13T01:18:48;10.52;;;5.05;;
57752;SDS011;43583;53.132;6.574;2023-05-13T01:21:25;7.82;;;5.15;;
57752;SDS011;43583;53.132;6.574;2023-05-13T01:23:51;12.88;;;5.32;;
57752;SDS011;43583;53.132;6.574;2023-05-13T01:26:19;6.53;;;4.57;;
57752;SDS011;43583;53.132;6.574;2023-05-13T01:28:47;6.35;;;4.50;;
57752;SDS011;43583;53.132;6.574;2023-05-13T01:31:24;5.68;;;4.82;;
57752;SDS011;43583;53.132;6.574;2023-05-13T01:33:59;8.82;;;5.72;;
57752;SDS011;43583;53.132;6.574;2023-05-13T01:37:00;7.43;;;5.50;;
57752;SDS011;43583;53.132;6.574;2023-05-13T01:39:27;12.15;;;5.45;;
57752;SDS011;43583;53.132;6.574;2023-05-13T01:41:53;8.20;;;4.55;;
57752;SDS011;43583;53.132;6.574;2023-05-13T01:44:19;7.38;;;4.70;;
57752;SDS011;43583;53.132;6.574;2023-05-13T01:46:46;6.53;;;5.70;;
57752;SDS011;43583;53.132;6.574;2023-05-13T01:49:17;5.53;;;4.95;;
57752;SDS011;43583;53.132;6.574;2023-05-13T01:51:45;8.25;;;5.28;;
57752;SDS011;43583;53.132;6.574;2023-05-13T01:54:11;8.90;;;4.93;;
57752;SDS011;43583;53.132;6.574;2023-05-13T01:56:39;6.15;;;4.63;;
57752;SDS011;43583;53.132;6.574;2023-05-13T01:59:05;6.20;;;5.05;;
57752;SDS011;43583;53.132;6.574;2023-05-13T02:01:33;8.63;;;4.63;;
57752;SDS011;43583;53.132;6.574;2023-05-13T02:03:59;10.20;;;5.07;;
57752;SDS011;43583;53.132;6.574;2023-05-13T02:06:25;10.63;;;5.93;;
57752;SDS011;43583;53.132;6.574;2023-05-13T02:08:51;7.43;;;5.13;;
57752;SDS011;43583;53.132;6.574;2023-05-13T02:11:20;8.88;;;6.03;;
57752;SDS011;43583;53.132;6.574;2023-05-13T02:13:46;7.38;;;5.53;;
57752;SDS011;43583;53.132;6.574;2023-05-13T02:16:15;5.72;;;5.07;;
57752;SDS011;43583;53.132;6.574;2023-05-13T02:18:44;7.38;;;5.07;;
57752;SDS011;43583;53.132;6.574;2023-05-13T02:21:09;8.30;;;5.63;;
57752;SDS011;43583;53.132;6.574;2023-05-13T02:23:35;7.05;;;5.95;;
57752;SDS011;43583;53.132;6.574;2023-05-13T02:26:04;12.02;;;6.40;;
57752;SDS011;43583;53.132;6.574;2023-05-13T02:28:29;9.18;;;5.70;;
57752;SDS011;43583;53.132;6.574;2023-05-13T02:30:55;8.63;;;5.82;;
57752;SDS011;43583;53.132;6.574;2023-05-13T02:33:21;12.50;;;5.97;;
57752;SDS011;43583;53.132;6.574;2023-05-13T02:35:46;7.90;;;5.88;;
57752;SDS011;43583;53.132;6.574;2023-05-13T02:38:12;9.07;;;6.47;;
57752;SDS011;43583;53.132;6.574;2023-05-13T02:40:38;8.95;;;5.85;;
57752;SDS011;43583;53.132;6.574;2023-05-13T02:43:03;6.28;;;5.13;;
57752;SDS011;43583;53.132;6.574;2023-05-13T02:45:29;8.88;;;6.05;;
57752;SDS011;43583;53.132;6.574;2023-05-13T02:47:54;12.40;;;5.93;;
57752;SDS011;43583;53.132;6.574;2023-05-13T02:50:24;11.27;;;5.65;;
57752;SDS011;43583;53.132;6.574;2023-05-13T02:52:50;10.15;;;6.13;;
57752;SDS011;43583;53.132;6.574;2023-05-13T02:55:16;6.63;;;5.65;;
57752;SDS011;43583;53.132;6.574;2023-05-13T02:57:41;11.15;;;6.07;;
57752;SDS011;43583;53.132;6.574;2023-05-13T03:00:07;10.20;;;6.55;;
57752;SDS011;43583;53.132;6.574;2023-05-13T03:02:34;8.70;;;6.22;;
57752;SDS011;43583;53.132;6.574;2023-05-13T03:05:00;7.50;;;5.85;;
57752;SDS011;43583;53.132;6.574;2023-05-13T03:07:25;8.02;;;6.10;;
57752;SDS011;43583;53.132;6.574;2023-05-13T03:09:51;8.02;;;5.82;;
57752;SDS011;43583;53.132;6.574;2023-05-13T03:12:22;9.70;;;6.72;;
57752;SDS011;43583;53.132;6.574;2023-05-13T03:14:47;8.07;;;5.90;;
57752;SDS011;43583;53.132;6.574;2023-05-13T03:17:13;15.68;;;6.07;;
57752;SDS011;43583;53.132;6.574;2023-05-13T03:19:39;10.05;;;6.75;;
57752;SDS011;43583;53.132;6.574;2023-05-13T03:22:05;8.45;;;6.60;;
57752;SDS011;43583;53.132;6.574;2023-05-13T03:24:33;8.82;;;6.95;;
57752;SDS011;43583;53.132;6.574;2023-05-13T03:27:05;9.52;;;6.70;;
57752;SDS011;43583;53.132;6.574;2023-05-13T03:29:31;12.80;;;7.68;;
57752;SDS011;43583;53.132;6.574;2023-05-13T03:31:56;11.15;;;7.07;;
57752;SDS011;43583;53.132;6.574;2023-05-13T03:34:26;11.55;;;8.20;;
57752;SDS011;43583;53.132;6.574;2023-05-13T03:37:09;10.13;;;6.68;;
57752;SDS011;43583;53.132;6.574;2023-05-13T03:39:38;13.05;;;7.72;;
57752;SDS011;43583;53.132;6.574;2023-05-13T03:42:12;12.60;;;9.13;;
57752;SDS011;43583;53.132;6.574;2023-05-13T03:44:54;9.93;;;7.45;;
57752;SDS011;43583;53.132;6.574;2023-05-13T03:47:21;12.98;;;7.35;;
57752;SDS011;43583;53.132;6.574;2023-05-13T03:49:53;10.10;;;6.93;;
57752;SDS011;43583;53.132;6.574;2023-05-13T03:52:19;8.43;;;6.70;;
57752;SDS011;43583;53.132;6.574;2023-05-13T03:54:56;11.02;;;7.40;;
57752;SDS011;43583;53.132;6.574;2023-05-13T03:57:30;10.77;;;7.32;;
57752;SDS011;43583;53.132;6.574;2023-05-13T03:59:58;10.40;;;7.07;;
57752;SDS011;43583;53.132;6.574;2023-05-13T04:02:44;9.55;;;7.20;;
57752;SDS011;43583;53.132;6.574;2023-05-13T04:08:20;8.85;;;6.80;;
57752;SDS011;43583;53.132;6.574;2023-05-13T04:20:41;9.13;;;7.80;;
57752;SDS011;43583;53.132;6.574;2023-05-13T04:23:21;11.13;;;7.85;;
57752;SDS011;43583;53.132;6.574;2023-05-13T04:33:30;9.90;;;6.97;;
57752;SDS011;43583;53.132;6.574;2023-05-13T05:01:58;13.65;;;6.38;;
57752;SDS011;43583;53.132;6.574;2023-05-13T05:18:00;7.35;;;3.80;;
57752;SDS011;43583;53.132;6.574;2023-05-13T05:20:59;9.35;;;3.80;;
57752;SDS011;43583;53.132;6.574;2023-05-13T05:31:06;4.50;;;3.40;;
57752;SDS011;43583;53.132;6.574;2023-05-13T05:33:38;4.97;;;3.60;;
57752;SDS011;43583;53.132;6.574;2023-05-13T05:36:13;4.95;;;3.17;;
57752;SDS011;43583;53.132;6.574;2023-05-13T05:38:38;4.63;;;2.78;;
57752;SDS011;43583;53.132;6.574;2023-05-13T05:41:20;4.25;;;2.90;;
57752;SDS011;43583;53.132;6.574;2023-05-13T05:43:48;6.03;;;2.55;;
57752;SDS011;43583;53.132;6.574;2023-05-13T05:57:42;4.35;;;2.40;;
57752;SDS011;43583;53.132;6.574;2023-05-13T06:01:01;5.78;;;2.63;;
57752;SDS011;43583;53.132;6.574;2023-05-13T06:07:03;3.60;;;2.28;;
57752;SDS011;43583;53.132;6.574;2023-05-13T06:10:40;3.72;;;2.40;;
57752;SDS011;43583;53.132;6.574;2023-05-13T06:13:27;2.83;;;1.50;;
57752;SDS011;43583;53.132;6.574;2023-05-13T06:16:01;5.00;;;2.17;;
57752;SDS011;43583;53.132;6.574;2023-05-13T06:18:26;3.38;;;1.98;;
57752;SDS011;43583;53.132;6.574;2023-05-13T06:21:33;8.63;;;2.45;;
57752;SDS011;43583;53.132;6.574;2023-05-13T06:40:46;3.58;;;1.92;;
57752;SDS011;43583;53.132;6.574;2023-05-13T06:47:07;4.38;;;1.77;;
57752;SDS011;43583;53.132;6.574;2023-05-13T07:07:44;3.67;;;1.60;;
57752;SDS011;43583;53.132;6.574;2023-05-13T07:38:06;3.47;;;1.48;;
57752;SDS011;43583;53.132;6.574;2023-05-13T07:40:52;3.10;;;1.67;;
57752;SDS011;43583;53.132;6.574;2023-05-13T07:51:00;2.33;;;1.02;;
57752;SDS011;43583;53.132;6.574;2023-05-13T07:54:01;4.47;;;1.73;;
57752;SDS011;43583;53.132;6.574;2023-05-13T07:57:06;2.67;;;1.10;;
57752;SDS011;43583;53.132;6.574;2023-05-13T07:59:45;4.05;;;1.95;;
57752;SDS011;43583;53.132;6.574;2023-05-13T08:02:19;2.33;;;1.42;;
57752;SDS011;43583;53.132;6.574;2023-05-13T08:04:46;3.22;;;1.63;;
57752;SDS011;43583;53.132;6.574;2023-05-13T08:07:11;3.00;;;1.23;;
57752;SDS011;43583;53.132;6.574;2023-05-13T08:09:37;4.03;;;1.52;;
57752;SDS011;43583;53.132;6.574;2023-05-13T08:12:02;3.05;;;1.23;;
57752;SDS011;43583;53.132;6.574;2023-05-13T08:14:28;2.50;;;0.93;;
57752;SDS011;43583;53.132;6.574;2023-05-13T08:16:54;2.45;;;2.25;;
57752;SDS011;43583;53.132;6.574;2023-05-13T08:19:20;3.83;;;1.30;;
57752;SDS011;43583;53.132;6.574;2023-05-13T08:21:45;4.15;;;1.98;;
57752;SDS011;43583;53.132;6.574;2023-05-13T08:24:11;1.67;;;1.55;;
57752;SDS011;43583;53.132;6.574;2023-05-13T08:26:37;2.88;;;1.77;;
57752;SDS011;43583;53.132;6.574;2023-05-13T08:29:02;2.83;;;1.63;;
57752;SDS011;43583;53.132;6.574;2023-05-13T08:31:28;5.78;;;1.63;;
57752;SDS011;43583;53.132;6.574;2023-05-13T08:33:54;2.42;;;1.52;;
57752;SDS011;43583;53.132;6.574;2023-05-13T08:36:20;1.70;;;1.55;;
57752;SDS011;43583;53.132;6.574;2023-05-13T08:38:49;5.18;;;1.42;;
57752;SDS011;43583;53.132;6.574;2023-05-13T08:41:15;2.28;;;1.45;;
57752;SDS011;43583;53.132;6.574;2023-05-13T08:43:41;6.40;;;1.75;;
57752;SDS011;43583;53.132;6.574;2023-05-13T08:46:08;2.80;;;1.17;;
57752;SDS011;43583;53.132;6.574;2023-05-13T08:48:36;4.20;;;1.48;;
57752;SDS011;43583;53.132;6.574;2023-05-13T08:51:03;3.80;;;1.52;;
57752;SDS011;43583;53.132;6.574;2023-05-13T08:53:29;4.82;;;1.40;;
57752;SDS011;43583;53.132;6.574;2023-05-13T08:55:55;2.30;;;1.20;;
57752;SDS011;43583;53.132;6.574;2023-05-13T08:58:21;3.42;;;1.80;;
57752;SDS011;43583;53.132;6.574;2023-05-13T09:00:48;3.83;;;1.13;;
57752;SDS011;43583;53.132;6.574;2023-05-13T09:03:15;3.05;;;0.90;;
57752;SDS011;43583;53.132;6.574;2023-05-13T09:05:42;1.30;;;0.90;;
57752;SDS011;43583;53.132;6.574;2023-05-13T09:08:08;2.53;;;0.80;;
57752;SDS011;43583;53.132;6.574;2023-05-13T09:10:34;4.35;;;1.08;;
57752;SDS011;43583;53.132;6.574;2023-05-13T09:13:00;1.63;;;1.00;;
57752;SDS011;43583;53.132;6.574;2023-05-13T09:15:26;1.58;;;1.20;;
57752;SDS011;43583;53.132;6.574;2023-05-13T09:18:00;1.58;;;1.10;;
57752;SDS011;43583;53.132;6.574;2023-05-13T09:20:29;1.60;;;0.70;;
57752;SDS011;43583;53.132;6.574;2023-05-13T09:23:00;3.38;;;0.70;;
57752;SDS011;43583;53.132;6.574;2023-05-13T09:25:28;1.83;;;0.63;;
57752;SDS011;43583;53.132;6.574;2023-05-13T09:27:55;2.58;;;0.60;;
57752;SDS011;43583;53.132;6.574;2023-05-13T09:30:25;2.95;;;0.90;;
57752;SDS011;43583;53.132;6.574;2023-05-13T09:33:06;3.00;;;1.52;;
57752;SDS011;43583;53.132;6.574;2023-05-13T09:35:40;3.22;;;1.00;;
57752;SDS011;43583;53.132;6.574;2023-05-13T09:38:13;1.70;;;0.95;;
57752;SDS011;43583;53.132;6.574;2023-05-13T09:40:48;1.95;;;0.98;;
57752;SDS011;43583;53.132;6.574;2023-05-13T09:43:33;2.17;;;0.77;;
57752;SDS011;43583;53.132;6.574;2023-05-13T09:46:03;2.15;;;0.80;;
57752;SDS011;43583;53.132;6.574;2023-05-13T09:48:30;2.45;;;1.20;;
57752;SDS011;43583;53.132;6.574;2023-05-13T09:50:57;3.70;;;1.77;;
57752;SDS011;43583;53.132;6.574;2023-05-13T09:53:23;3.35;;;0.90;;
57752;SDS011;43583;53.132;6.574;2023-05-13T09:55:51;8.05;;;1.58;;
57752;SDS011;43583;53.132;6.574;2023-05-13T09:58:18;5.70;;;1.30;;
57752;SDS011;43583;53.132;6.574;2023-05-13T10:00:44;2.90;;;1.25;;
57752;SDS011;43583;53.132;6.574;2023-05-13T10:03:11;7.90;;;1.00;;
57752;SDS011;43583;53.132;6.574;2023-05-13T10:05:41;2.55;;;0.82;;
57752;SDS011;43583;53.132;6.574;2023-05-13T10:08:07;2.55;;;1.38;;
57752;SDS011;43583;53.132;6.574;2023-05-13T10:10:34;6.68;;;1.30;;
57752;SDS011;43583;53.132;6.574;2023-05-13T10:13:02;2.33;;;0.85;;
57752;SDS011;43583;53.132;6.574;2023-05-13T10:15:36;2.22;;;1.27;;
57752;SDS011;43583;53.132;6.574;2023-05-13T10:18:10;2.88;;;1.15;;
57752;SDS011;43583;53.132;6.574;2023-05-13T10:20:36;3.75;;;1.85;;
57752;SDS011;43583;53.132;6.574;2023-05-13T10:23:03;1.88;;;1.08;;
57752;SDS011;43583;53.132;6.574;2023-05-13T10:25:29;2.70;;;1.15;;
57752;SDS011;43583;53.132;6.574;2023-05-13T10:27:55;2.88;;;1.48;;
57752;SDS011;43583;53.132;6.574;2023-05-13T10:30:21;3.97;;;1.20;;
57752;SDS011;43583;53.132;6.574;2023-05-13T10:32:50;3.30;;;1.77;;
57752;SDS011;43583;53.132;6.574;2023-05-13T10:35:16;2.00;;;1.15;;
57752;SDS011;43583;53.132;6.574;2023-05-13T10:43:28;1.95;;;0.88;;
57752;SDS011;43583;53.132;6.574;2023-05-13T10:45:58;3.65;;;1.75;;
57752;SDS011;43583;53.132;6.574;2023-05-13T10:48:40;4.00;;;1.10;;
57752;SDS011;43583;53.132;6.574;2023-05-13T10:51:07;3.33;;;1.10;;
57752;SDS011;43583;53.132;6.574;2023-05-13T10:53:47;1.90;;;1.20;;
57752;SDS011;43583;53.132;6.574;2023-05-13T10:56:14;3.55;;;0.88;;
57752;SDS011;43583;53.132;6.574;2023-05-13T10:58:43;2.38;;;0.95;;
57752;SDS011;43583;53.132;6.574;2023-05-13T11:01:32;2.80;;;1.25;;
57752;SDS011;43583;53.132;6.574;2023-05-13T11:04:00;3.78;;;0.93;;
57752;SDS011;43583;53.132;6.574;2023-05-13T11:06:34;4.47;;;1.02;;
57752;SDS011;43583;53.132;6.574;2023-05-13T11:09:03;3.73;;;0.90;;
57752;SDS011;43583;53.132;6.574;2023-05-13T11:11:31;5.65;;;1.67;;
57752;SDS011;43583;53.132;6.574;2023-05-13T11:16:47;4.28;;;1.40;;
57752;SDS011;43583;53.132;6.574;2023-05-13T11:19:18;2.70;;;1.30;;
57752;SDS011;43583;53.132;6.574;2023-05-13T11:21:49;2.63;;;1.25;;
57752;SDS011;43583;53.132;6.574;2023-05-13T11:24:17;2.45;;;1.30;;
57752;SDS011;43583;53.132;6.574;2023-05-13T11:26:51;2.63;;;1.08;;
57752;SDS011;43583;53.132;6.574;2023-05-13T11:29:34;3.05;;;0.88;;
57752;SDS011;43583;53.132;6.574;2023-05-13T11:32:01;2.00;;;1.13;;
57752;SDS011;43583;53.132;6.574;2023-05-13T11:34:29;1.50;;;0.88;;
57752;SDS011;43583;53.132;6.574;2023-05-13T11:37:10;2.40;;;0.95;;
57752;SDS011;43583;53.132;6.574;2023-05-13T11:39:39;4.25;;;0.98;;
57752;SDS011;43583;53.132;6.574;2023-05-13T11:42:06;1.55;;;0.70;;
57752;SDS011;43583;53.132;6.574;2023-05-13T11:44:33;2.25;;;0.65;;
57752;SDS011;43583;53.132;6.574;2023-05-13T11:47:03;3.17;;;0.90;;
57752;SDS011;43583;53.132;6.574;2023-05-13T11:52:10;0.75;;;0.52;;
57752;SDS011;43583;53.132;6.574;2023-05-13T11:54:54;3.28;;;0.77;;
57752;SDS011;43583;53.132;6.574;2023-05-13T11:57:25;3.25;;;1.13;;
57752;SDS011;43583;53.132;6.574;2023-05-13T11:59:53;2.95;;;0.88;;
57752;SDS011;43583;53.132;6.574;2023-05-13T12:02:25;2.58;;;0.57;;
57752;SDS011;43583;53.132;6.574;2023-05-13T12:04:58;2.65;;;1.83;;
57752;SDS011;43583;53.132;6.574;2023-05-13T12:07:25;2.30;;;1.20;;
57752;SDS011;43583;53.132;6.574;2023-05-13T12:09:52;2.03;;;1.15;;
57752;SDS011;43583;53.132;6.574;2023-05-13T12:12:19;3.05;;;1.65;;
57752;SDS011;43583;53.132;6.574;2023-05-13T12:14:45;2.38;;;1.77;;
57752;SDS011;43583;53.132;6.574;2023-05-13T12:17:14;2.67;;;1.42;;
57752;SDS011;43583;53.132;6.574;2023-05-13T12:19:59;3.92;;;1.42;;
57752;SDS011;43583;53.132;6.574;2023-05-13T12:22:32;2.13;;;0.95;;
57752;SDS011;43583;53.132;6.574;2023-05-13T12:25:30;2.95;;;1.00;;
57752;SDS011;43583;53.132;6.574;2023-05-13T12:28:06;2.83;;;1.80;;
57752;SDS011;43583;53.132;6.574;2023-05-13T12:30:54;10.93;;;1.42;;
57752;SDS011;43583;53.132;6.574;2023-05-13T12:33:28;3.85;;;1.38;;
57752;SDS011;43583;53.132;6.574;2023-05-13T12:38:57;4.78;;;0.93;;
57752;SDS011;43583;53.132;6.574;2023-05-13T12:41:25;1.25;;;0.65;;
57752;SDS011;43583;53.132;6.574;2023-05-13T12:43:56;2.50;;;0.80;;
57752;SDS011;43583;53.132;6.574;2023-05-13T12:46:23;2.00;;;0.80;;
57752;SDS011;43583;53.132;6.574;2023-05-13T12:48:51;3.45;;;1.02;;
57752;SDS011;43583;53.132;6.574;2023-05-13T12:51:18;1.25;;;1.08;;
57752;SDS011;43583;53.132;6.574;2023-05-13T12:53:44;1.35;;;0.60;;
57752;SDS011;43583;53.132;6.574;2023-05-13T12:56:09;4.38;;;0.90;;
57752;SDS011;43583;53.132;6.574;2023-05-13T12:58:35;4.68;;;0.90;;
57752;SDS011;43583;53.132;6.574;2023-05-13T13:01:01;1.00;;;0.75;;
57752;SDS011;43583;53.132;6.574;2023-05-13T13:03:26;4.70;;;0.85;;
57752;SDS011;43583;53.132;6.574;2023-05-13T13:05:52;3.20;;;1.10;;
57752;SDS011;43583;53.132;6.574;2023-05-13T13:08:18;2.53;;;0.70;;
57752;SDS011;43583;53.132;6.574;2023-05-13T13:10:43;1.58;;;0.70;;
57752;SDS011;43583;53.132;6.574;2023-05-13T13:13:09;4.75;;;0.60;;
57752;SDS011;43583;53.132;6.574;2023-05-13T13:15:34;2.08;;;0.60;;
57752;SDS011;43583;53.132;6.574;2023-05-13T13:18:00;2.22;;;0.60;;
57752;SDS011;43583;53.132;6.574;2023-05-13T13:20:25;2.10;;;0.50;;
57752;SDS011;43583;53.132;6.574;2023-05-13T13:22:52;2.03;;;0.40;;
57752;SDS011;43583;53.132;6.574;2023-05-13T13:25:18;2.80;;;1.10;;
57752;SDS011;43583;53.132;6.574;2023-05-13T13:27:44;2.25;;;0.45;;
57752;SDS011;43583;53.132;6.574;2023-05-13T13:30:09;2.05;;;0.38;;
57752;SDS011;43583;53.132;6.574;2023-05-13T13:32:35;2.20;;;0.43;;
57752;SDS011;43583;53.132;6.574;2023-05-13T13:35:01;9.88;;;1.45;;
57752;SDS011;43583;53.132;6.574;2023-05-13T13:37:29;2.25;;;0.80;;
57752;SDS011;43583;53.132;6.574;2023-05-13T13:39:55;5.80;;;0.98;;
57752;SDS011;43583;53.132;6.574;2023-05-13T13:42:20;4.57;;;0.82;;
57752;SDS011;43583;53.132;6.574;2023-05-13T13:44:46;3.50;;;0.98;;
57752;SDS011;43583;53.132;6.574;2023-05-13T13:47:12;2.28;;;1.10;;
57752;SDS011;43583;53.132;6.574;2023-05-13T13:49:38;4.43;;;1.00;;
57752;SDS011;43583;53.132;6.574;2023-05-13T13:52:04;4.68;;;1.15;;
57752;SDS011;43583;53.132;6.574;2023-05-13T13:54:30;6.80;;;1.73;;
57752;SDS011;43583;53.132;6.574;2023-05-13T13:56:55;3.25;;;0.98;;
57752;SDS011;43583;53.132;6.574;2023-05-13T13:59:21;3.28;;;0.90;;
57752;SDS011;43583;53.132;6.574;2023-05-13T14:01:47;5.78;;;0.82;;
57752;SDS011;43583;53.132;6.574;2023-05-13T14:04:13;2.70;;;0.93;;
57752;SDS011;43583;53.132;6.574;2023-05-13T14:06:41;3.13;;;0.50;;
57752;SDS011;43583;53.132;6.574;2023-05-13T14:09:08;2.33;;;0.40;;
57752;SDS011;43583;53.132;6.574;2023-05-13T14:11:34;2.42;;;0.50;;
57752;SDS011;43583;53.132;6.574;2023-05-13T14:14:00;1.55;;;0.70;;
57752;SDS011;43583;53.132;6.574;2023-05-13T14:16:26;1.80;;;0.50;;
57752;SDS011;43583;53.132;6.574;2023-05-13T14:18:52;3.40;;;0.80;;
57752;SDS011;43583;53.132;6.574;2023-05-13T14:21:17;3.10;;;0.80;;
57752;SDS011;43583;53.132;6.574;2023-05-13T14:23:43;1.88;;;0.90;;
57752;SDS011;43583;53.132;6.574;2023-05-13T14:26:09;1.77;;;0.55;;
57752;SDS011;43583;53.132;6.574;2023-05-13T14:28:37;4.65;;;0.82;;
57752;SDS011;43583;53.132;6.574;2023-05-13T14:31:02;1.92;;;0.70;;
57752;SDS011;43583;53.132;6.574;2023-05-13T14:33:29;1.98;;;0.60;;
57752;SDS011;43583;53.132;6.574;2023-05-13T14:35:55;2.42;;;0.70;;
57752;SDS011;43583;53.132;6.574;2023-05-13T14:38:20;2.88;;;0.60;;
57752;SDS011;43583;53.132;6.574;2023-05-13T14:40:46;3.15;;;0.70;;
57752;SDS011;43583;53.132;6.574;2023-05-13T14:43:11;2.22;;;0.63;;
57752;SDS011;43583;53.132;6.574;2023-05-13T14:45:37;2.97;;;0.70;;
57752;SDS011;43583;53.132;6.574;2023-05-13T14:48:03;1.50;;;0.50;;
57752;SDS011;43583;53.132;6.574;2023-05-13T14:50:28;3.13;;;0.60;;
57752;SDS011;43583;53.132;6.574;2023-05-13T14:52:54;2.53;;;0.93;;
57752;SDS011;43583;53.132;6.574;2023-05-13T14:55:19;1.52;;;0.47;;
57752;SDS011;43583;53.132;6.574;2023-05-13T14:57:45;4.55;;;0.98;;
57752;SDS011;43583;53.132;6.574;2023-05-13T15:00:11;4.47;;;0.73;;
57752;SDS011;43583;53.132;6.574;2023-05-13T15:02:37;2.47;;;0.50;;
57752;SDS011;43583;53.132;6.574;2023-05-13T15:05:03;2.40;;;0.77;;
57752;SDS011;43583;53.132;6.574;2023-05-13T15:07:29;4.30;;;0.98;;
57752;SDS011;43583;53.132;6.574;2023-05-13T15:09:54;3.35;;;0.70;;
57752;SDS011;43583;53.132;6.574;2023-05-13T15:12:20;2.10;;;0.52;;
57752;SDS011;43583;53.132;6.574;2023-05-13T15:14:53;2.50;;;0.57;;
57752;SDS011;43583;53.132;6.574;2023-05-13T15:17:19;2.55;;;0.45;;
57752;SDS011;43583;53.132;6.574;2023-05-13T15:19:45;1.95;;;0.47;;
57752;SDS011;43583;53.132;6.574;2023-05-13T15:22:11;2.63;;;0.70;;
57752;SDS011;43583;53.132;6.574;2023-05-13T15:24:37;2.95;;;0.85;;
57752;SDS011;43583;53.132;6.574;2023-05-13T15:27:03;2.08;;;0.50;;
57752;SDS011;43583;53.132;6.574;2023-05-13T15:29:29;1.67;;;0.60;;
57752;SDS011;43583;53.132;6.574;2023-05-13T15:31:54;3.88;;;0.63;;
57752;SDS011;43583;53.132;6.574;2023-05-13T15:34:20;2.45;;;0.38;;
57752;SDS011;43583;53.132;6.574;2023-05-13T15:36:46;2.45;;;0.47;;
57752;SDS011;43583;53.132;6.574;2023-05-13T15:39:12;1.00;;;0.30;;
57752;SDS011;43583;53.132;6.574;2023-05-13T15:41:37;4.85;;;0.60;;
57752;SDS011;43583;53.132;6.574;2023-05-13T15:44:03;2.45;;;0.60;;
57752;SDS011;43583;53.132;6.574;2023-05-13T15:46:30;1.25;;;0.57;;
57752;SDS011;43583;53.132;6.574;2023-05-13T15:48:57;3.65;;;0.85;;
57752;SDS011;43583;53.132;6.574;2023-05-13T15:51:23;2.10;;;0.90;;
57752;SDS011;43583;53.132;6.574;2023-05-13T15:53:49;3.97;;;1.15;;
57752;SDS011;43583;53.132;6.574;2023-05-13T15:56:16;2.53;;;1.50;;
57752;SDS011;43583;53.132;6.574;2023-05-13T15:58:42;2.88;;;1.15;;
57752;SDS011;43583;53.132;6.574;2023-05-13T16:01:07;3.33;;;2.25;;
57752;SDS011;43583;53.132;6.574;2023-05-13T16:03:33;3.25;;;1.20;;
57752;SDS011;43583;53.132;6.574;2023-05-13T16:05:59;1.92;;;0.82;;
57752;SDS011;43583;53.132;6.574;2023-05-13T16:08:24;2.47;;;1.67;;
57752;SDS011;43583;53.132;6.574;2023-05-13T16:10:50;4.60;;;1.15;;
57752;SDS011;43583;53.132;6.574;2023-05-13T16:13:15;1.20;;;0.70;;
57752;SDS011;43583;53.132;6.574;2023-05-13T16:15:41;2.92;;;1.17;;
57752;SDS011;43583;53.132;6.574;2023-05-13T16:18:06;2.10;;;1.00;;
57752;SDS011;43583;53.132;6.574;2023-05-13T16:20:32;4.10;;;1.08;;
57752;SDS011;43583;53.132;6.574;2023-05-13T16:22:58;3.03;;;1.33;;
57752;SDS011;43583;53.132;6.574;2023-05-13T16:25:23;5.50;;;1.20;;
57752;SDS011;43583;53.132;6.574;2023-05-13T16:27:49;2.88;;;1.23;;
57752;SDS011;43583;53.132;6.574;2023-05-13T16:30:14;1.20;;;0.85;;
57752;SDS011;43583;53.132;6.574;2023-05-13T16:32:40;4.03;;;1.10;;
57752;SDS011;43583;53.132;6.574;2023-05-13T16:35:05;2.83;;;1.10;;
57752;SDS011;43583;53.132;6.574;2023-05-13T16:37:32;5.00;;;1.17;;
57752;SDS011;43583;53.132;6.574;2023-05-13T16:40:00;2.75;;;1.55;;
57752;SDS011;43583;53.132;6.574;2023-05-13T16:42:26;2.58;;;1.73;;
57752;SDS011;43583;53.132;6.574;2023-05-13T16:44:51;3.45;;;1.45;;
57752;SDS011;43583;53.132;6.574;2023-05-13T16:47:17;5.25;;;0.95;;
57752;SDS011;43583;53.132;6.574;2023-05-13T16:49:42;2.15;;;1.02;;
57752;SDS011;43583;53.132;6.574;2023-05-13T16:52:09;3.40;;;1.15;;
57752;SDS011;43583;53.132;6.574;2023-05-13T16:54:35;3.88;;;1.60;;
57752;SDS011;43583;53.132;6.574;2023-05-13T16:57:00;2.50;;;1.38;;
57752;SDS011;43583;53.132;6.574;2023-05-13T16:59:26;2.25;;;1.45;;
57752;SDS011;43583;53.132;6.574;2023-05-13T17:01:52;2.80;;;1.35;;
57752;SDS011;43583;53.132;6.574;2023-05-13T17:04:18;3.35;;;2.10;;
57752;SDS011;43583;53.132;6.574;2023-05-13T17:06:45;4.00;;;2.10;;
57752;SDS011;43583;53.132;6.574;2023-05-13T17:09:10;5.05;;;2.00;;
57752;SDS011;43583;53.132;6.574;2023-05-13T17:11:37;3.97;;;1.50;;
57752;SDS011;43583;53.132;6.574;2023-05-13T17:14:03;3.53;;;1.77;;
57752;SDS011;43583;53.132;6.574;2023-05-13T17:16:29;4.25;;;1.42;;
57752;SDS011;43583;53.132;6.574;2023-05-13T17:18:55;4.68;;;1.95;;
57752;SDS011;43583;53.132;6.574;2023-05-13T17:21:20;3.67;;;2.15;;
57752;SDS011;43583;53.132;6.574;2023-05-13T17:23:46;6.18;;;2.60;;
57752;SDS011;43583;53.132;6.574;2023-05-13T17:26:11;3.25;;;2.67;;
57752;SDS011;43583;53.132;6.574;2023-05-13T17:28:37;7.15;;;2.85;;
57752;SDS011;43583;53.132;6.574;2023-05-13T17:31:04;4.13;;;2.97;;
57752;SDS011;43583;53.132;6.574;2023-05-13T17:33:31;6.88;;;4.05;;
57752;SDS011;43583;53.132;6.574;2023-05-13T17:35:57;3.53;;;2.58;;
57752;SDS011;43583;53.132;6.574;2023-05-13T17:38:22;6.55;;;3.53;;
57752;SDS011;43583;53.132;6.574;2023-05-13T17:40:49;6.65;;;2.92;;
57752;SDS011;43583;53.132;6.574;2023-05-13T17:43:15;4.70;;;3.53;;
57752;SDS011;43583;53.132;6.574;2023-05-13T17:45:40;6.70;;;3.42;;
57752;SDS011;43583;53.132;6.574;2023-05-13T17:48:09;5.07;;;3.28;;
57752;SDS011;43583;53.132;6.574;2023-05-13T17:50:35;6.45;;;3.70;;
57752;SDS011;43583;53.132;6.574;2023-05-13T17:53:00;6.00;;;3.90;;
57752;SDS011;43583;53.132;6.574;2023-05-13T17:55:26;5.75;;;3.80;;
57752;SDS011;43583;53.132;6.574;2023-05-13T17:57:51;6.03;;;3.15;;
57752;SDS011;43583;53.132;6.574;2023-05-13T18:00:19;7.47;;;3.28;;
57752;SDS011;43583;53.132;6.574;2023-05-13T18:02:45;4.45;;;3.40;;